Time;durP1;ratioP1;P1;durP2;ratioP2;P2;SDS_P1;SDS_P2;PMS_P1;PMS_P2;Temp;Humidity;BMP_temperature;BMP_pressure;BME280_temperature;BME280_humidity;BME280_pressure;Samples;Min_cycle;Max_cycle;Signal;HPM_P1;HPM_P2
2021/12/04 00:02:06;;;;;;;2.38;1.45;;;12.30;62.30;;;;;;5000180;28;20058;-73
2021/12/04 00:04:38;;;;;;;1.58;1.40;;;12.30;62.20;;;;;;5014934;28;20022;-71
2021/12/04 00:07:06;;;;;;;1.80;1.30;;;12.30;62.30;;;;;;4999837;28;20019;-71
2021/12/04 00:09:32;;;;;;;1.58;1.30;;;12.30;62.20;;;;;;4999851;28;20068;-71
2021/12/04 00:12:07;;;;;;;1.60;1.17;;;12.20;62.20;;;;;;4999888;28;20030;-71
2021/12/04 00:14:36;;;;;;;1.23;1.13;;;12.20;62.40;;;;;;4999844;28;20018;-71
2021/12/04 00:17:02;;;;;;;1.48;1.33;;;12.20;62.50;;;;;;4999796;28;20041;-72
2021/12/04 00:19:29;;;;;;;1.88;1.35;;;12.20;62.50;;;;;;4998509;28;20093;-72
2021/12/04 00:21:55;;;;;;;2.38;1.60;;;12.10;62.50;;;;;;4999787;28;20026;-72
2021/12/04 00:24:22;;;;;;;1.20;1.10;;;12.20;62.60;;;;;;5014900;28;20049;-72
2021/12/04 00:26:49;;;;;;;2.58;1.05;;;12.10;62.60;;;;;;4999754;28;20022;-71
2021/12/04 00:29:15;;;;;;;0.95;0.88;;;12.20;62.60;;;;;;4999633;28;20421;-71
2021/12/04 00:31:51;;;;;;;1.60;1.10;;;12.20;62.40;;;;;;4999687;28;20342;-71
2021/12/04 00:34:20;;;;;;;1.80;1.48;;;12.20;62.50;;;;;;4999759;28;20026;-72
2021/12/04 00:50:11;;;;;;;1.15;1.00;;;12.20;62.30;;;;;;4999595;28;20028;-71
2021/12/04 00:52:38;;;;;;;2.28;1.48;;;12.20;62.30;;;;;;5014484;28;20033;-71
2021/12/04 00:55:05;;;;;;;1.58;1.15;;;12.20;62.40;;;;;;4999337;28;20054;-70
2021/12/04 00:57:31;;;;;;;1.80;1.30;;;12.20;62.40;;;;;;5000484;28;20345;-72
2021/12/04 00:59:57;;;;;;;1.30;1.00;;;12.20;62.40;;;;;;5018040;28;20041;-71
2021/12/04 01:02:23;;;;;;;2.00;1.20;;;12.10;62.40;;;;;;5002961;28;20030;-71
2021/12/04 01:04:49;;;;;;;1.58;1.00;;;12.10;62.40;;;;;;5002972;28;20049;-72
2021/12/04 01:07:15;;;;;;;2.20;1.08;;;12.10;62.40;;;;;;5001931;28;20018;-71
2021/12/04 01:09:41;;;;;;;1.27;1.17;;;12.10;62.30;;;;;;5002861;28;20110;-72
2021/12/04 01:12:07;;;;;;;1.08;0.90;;;12.20;62.40;;;;;;5002865;28;20028;-73
2021/12/04 01:14:33;;;;;;;2.22;1.48;;;12.10;62.30;;;;;;5001490;28;20207;-70
2021/12/04 01:17:00;;;;;;;1.90;1.33;;;12.10;62.40;;;;;;5002759;28;20166;-70
2021/12/04 01:19:26;;;;;;;1.73;1.25;;;12.10;62.40;;;;;;5017831;28;20030;-71
2021/12/04 01:21:53;;;;;;;2.55;1.70;;;12.10;62.40;;;;;;5017693;28;20064;-70
2021/12/04 01:24:20;;;;;;;1.35;1.25;;;12.10;62.40;;;;;;5002702;28;20433;-72
2021/12/04 01:26:48;;;;;;;1.40;1.08;;;12.10;62.40;;;;;;5002659;28;20034;-70
2021/12/04 01:29:15;;;;;;;1.98;1.23;;;12.10;62.40;;;;;;5002535;28;20085;-72
2021/12/04 01:31:40;;;;;;;1.80;1.48;;;12.10;62.50;;;;;;5002453;28;20073;-72
2021/12/04 01:34:06;;;;;;;1.63;1.25;;;12.10;62.40;;;;;;5002520;28;20057;-71
2021/12/04 01:36:33;;;;;;;1.15;0.98;;;12.10;62.40;;;;;;5002385;28;20033;-72
2021/12/04 01:38:59;;;;;;;1.55;1.13;;;12.10;62.50;;;;;;5017460;28;20022;-72
2021/12/04 01:41:25;;;;;;;2.67;1.30;;;12.10;62.50;;;;;;5002179;28;20026;-71
2021/12/04 01:43:51;;;;;;;1.85;1.35;;;12.10;62.50;;;;;;5002234;28;20089;-71
2021/12/04 01:46:17;;;;;;;1.52;1.30;;;12.10;62.40;;;;;;5002310;28;20034;-70
2021/12/04 01:48:43;;;;;;;1.70;1.33;;;12.10;62.30;;;;;;5002141;28;20448;-72
2021/12/04 01:51:09;;;;;;;2.05;1.35;;;12.10;62.30;;;;;;5001175;28;20030;-72
2021/12/04 01:53:35;;;;;;;1.50;1.30;;;12.10;62.50;;;;;;5016977;28;20205;-71
2021/12/04 01:56:01;;;;;;;1.65;1.30;;;12.00;62.50;;;;;;5002081;28;20090;-71
2021/12/04 01:58:29;;;;;;;1.50;1.35;;;12.00;62.40;;;;;;5000715;28;20030;-71
2021/12/04 02:00:56;;;;;;;1.98;1.23;;;12.00;62.50;;;;;;5001893;28;20322;-71
2021/12/04 02:03:22;;;;;;;2.00;1.45;;;12.00;62.40;;;;;;5001854;28;20030;-72
2021/12/04 02:05:49;;;;;;;2.10;1.35;;;12.00;62.40;;;;;;5001854;28;20019;-72
2021/12/04 02:08:18;;;;;;;1.88;1.30;;;12.00;62.40;;;;;;5001501;28;20219;-71
2021/12/04 02:10:46;;;;;;;1.70;1.10;;;12.10;62.40;;;;;;5001139;28;20022;-71
2021/12/04 02:13:12;;;;;;;1.85;1.30;;;12.10;62.40;;;;;;5016696;28;20133;-71
2021/12/04 02:15:37;;;;;;;2.72;1.35;;;12.10;62.40;;;;;;5001704;28;20030;-73
2021/12/04 02:18:05;;;;;;;2.03;1.30;;;12.00;62.50;;;;;;5001671;28;20018;-71
2021/12/04 02:20:33;;;;;;;1.27;1.10;;;12.00;62.60;;;;;;5001459;28;20053;-72
2021/12/04 02:23:01;;;;;;;2.53;1.47;;;12.00;62.40;;;;;;5016613;28;20338;-73
2021/12/04 02:25:27;;;;;;;1.50;1.10;;;12.00;62.30;;;;;;5001527;28;20294;-72
2021/12/04 02:27:53;;;;;;;1.50;1.38;;;12.00;62.30;;;;;;5001444;28;20026;-73
2021/12/04 02:30:25;;;;;;;1.50;1.23;;;12.00;62.40;;;;;;5001426;28;20026;-72
2021/12/04 02:32:52;;;;;;;2.45;1.65;;;11.90;62.40;;;;;;5001383;28;20034;-71
2021/12/04 02:35:18;;;;;;;1.58;1.10;;;12.00;62.60;;;;;;5001324;28;20030;-71
2021/12/04 02:37:45;;;;;;;1.60;1.20;;;12.00;62.60;;;;;;5001226;28;20030;-71
2021/12/04 02:40:14;;;;;;;3.03;1.50;;;12.00;62.60;;;;;;5001118;28;20062;-72
2021/12/04 02:42:41;;;;;;;1.63;1.38;;;12.00;62.40;;;;;;5001080;28;20210;-71
2021/12/04 02:45:09;;;;;;;1.63;1.35;;;12.00;62.40;;;;;;5001123;28;20023;-72
2021/12/04 02:47:35;;;;;;;2.50;1.50;;;12.00;62.40;;;;;;5001237;28;20029;-72
2021/12/04 02:50:05;;;;;;;2.22;1.25;;;12.00;62.40;;;;;;5016028;28;20269;-71
2021/12/04 02:52:31;;;;;;;1.33;1.23;;;11.90;62.40;;;;;;5001249;28;20026;-71
2021/12/04 02:54:57;;;;;;;1.80;1.30;;;12.00;62.40;;;;;;5000828;28;20050;-71
2021/12/04 02:57:23;;;;;;;1.48;1.10;;;12.00;62.60;;;;;;5001011;28;20357;-72
2021/12/04 02:59:50;;;;;;;1.73;1.30;;;11.90;62.50;;;;;;5000771;28;20030;-72
2021/12/04 03:02:19;;;;;;;1.90;1.40;;;11.90;62.40;;;;;;4999592;28;20022;-71
2021/12/04 03:04:46;;;;;;;;;;;11.90;62.40;;;;;;5001169;28;20093;-72
2021/12/04 03:07:13;;;;;;;2.00;1.25;;;12.00;62.40;;;;;;5000726;28;19910;-72
2021/12/04 03:09:39;;;;;;;1.40;1.27;;;11.90;62.50;;;;;;5000672;28;20309;-72
2021/12/04 03:12:07;;;;;;;1.80;1.20;;;11.90;62.50;;;;;;5000629;28;20026;-71
2021/12/04 03:14:34;;;;;;;2.15;1.25;;;11.90;62.60;;;;;;4999340;28;20022;-72
2021/12/04 03:16:59;;;;;;;1.95;1.13;;;11.90;62.80;;;;;;4999302;28;20018;-71
2021/12/04 03:19:26;;;;;;;1.73;1.25;;;11.90;62.70;;;;;;5015566;28;20026;-71
2021/12/04 03:21:54;;;;;;;3.15;1.48;;;11.90;62.50;;;;;;5015238;28;20054;-71
2021/12/04 03:24:20;;;;;;;1.85;1.52;;;11.90;62.40;;;;;;5000468;28;20022;-71
2021/12/04 03:26:49;;;;;;;1.95;1.30;;;11.90;62.50;;;;;;5000400;28;20033;-71
2021/12/04 03:29:18;;;;;;;1.35;1.25;;;11.90;62.40;;;;;;5000386;28;20010;-70
2021/12/04 03:42:24;;;;;;;1.75;1.40;;;11.90;62.40;;;;;;5000237;28;20345;-71
2021/12/04 03:44:50;;;;;;;1.45;1.10;;;11.90;62.50;;;;;;5015241;28;20026;-72
2021/12/04 03:47:17;;;;;;;2.03;1.52;;;11.90;62.50;;;;;;5000153;28;20018;-71
2021/12/04 03:49:43;;;;;;;2.60;1.50;;;11.80;62.60;;;;;;4998857;28;20030;-72
2021/12/04 03:52:09;;;;;;;2.03;1.20;;;11.80;62.70;;;;;;5015160;28;20225;-71
2021/12/04 03:54:35;;;;;;;1.33;1.23;;;11.80;62.80;;;;;;4999963;28;20404;-71
2021/12/04 03:57:05;;;;;;;2.65;1.40;;;11.80;62.70;;;;;;4998759;28;20027;-71
2021/12/04 03:59:32;;;;;;;1.27;1.10;;;11.80;62.70;;;;;;5015077;28;20368;-72
2021/12/04 04:01:58;;;;;;;1.45;1.17;;;11.90;62.60;;;;;;5000031;28;20030;-72
2021/12/04 04:04:24;;;;;;;1.88;1.38;;;11.90;62.50;;;;;;5014935;28;20022;-72
2021/12/04 04:06:49;;;;;;;2.28;1.50;;;11.90;62.40;;;;;;4999863;28;20026;-72
2021/12/04 04:09:15;;;;;;;1.58;1.48;;;11.90;62.50;;;;;;4999903;28;20049;-72
2021/12/04 04:11:41;;;;;;;2.05;1.42;;;11.80;62.50;;;;;;4999803;28;20032;-72
2021/12/04 04:14:07;;;;;;;2.08;1.60;;;11.90;62.50;;;;;;5014989;28;20080;-71
2021/12/04 04:16:37;;;;;;;1.38;1.10;;;11.90;62.50;;;;;;4999794;28;20026;-73
2021/12/04 04:19:03;;;;;;;1.63;1.20;;;11.90;62.50;;;;;;4999811;28;20106;-71
2021/12/04 04:21:29;;;;;;;1.88;1.20;;;11.80;63.20;;;;;;5014773;28;20026;-71
2021/12/04 04:23:55;;;;;;;2.00;1.00;;;11.80;62.60;;;;;;4999752;28;20053;-71
2021/12/04 04:26:20;;;;;;;2.47;1.23;;;11.80;62.60;;;;;;4999691;28;20068;-71
2021/12/04 04:28:46;;;;;;;1.48;1.10;;;11.80;62.60;;;;;;5014881;28;20023;-71
2021/12/04 04:31:12;;;;;;;1.27;1.10;;;11.80;62.70;;;;;;4998357;28;20105;-72
2021/12/04 04:33:43;;;;;;;1.67;1.50;;;11.80;62.70;;;;;;5001351;28;20018;-72
2021/12/04 05:11:22;;;;;;;1.63;1.00;;;11.70;62.70;;;;;;5002857;28;20026;-72
2021/12/04 05:13:48;;;;;;;1.00;0.90;;;11.70;62.70;;;;;;5002907;28;20309;-72
2021/12/04 05:16:15;;;;;;;2.42;1.50;;;11.70;62.70;;;;;;5002776;28;20062;-72
2021/12/04 05:18:56;;;;;;;1.10;1.10;;;11.70;62.70;;;;;;5002660;28;20025;-72
2021/12/04 05:21:22;;;;;;;1.60;1.33;;;11.70;62.60;;;;;;5002642;28;20318;-72
2021/12/04 05:23:49;;;;;;;1.73;1.25;;;11.70;62.60;;;;;;5002604;28;20026;-72
2021/12/04 05:26:18;;;;;;;2.13;1.05;;;11.70;62.70;;;;;;5002570;28;20029;-71
2021/12/04 05:28:45;;;;;;;1.30;1.10;;;11.70;62.60;;;;;;5002548;28;20049;-71
2021/12/04 05:31:11;;;;;;;3.00;1.48;;;11.70;62.60;;;;;;5002514;28;20478;-72
2021/12/04 05:33:39;;;;;;;2.05;1.40;;;11.70;62.60;;;;;;5002487;28;20064;-70
2021/12/04 05:36:05;;;;;;;2.08;1.15;;;11.70;62.60;;;;;;5002479;28;20034;-70
2021/12/04 05:38:31;;;;;;;1.30;0.98;;;11.70;62.50;;;;;;5002281;28;20221;-71
2021/12/04 05:40:57;;;;;;;1.00;0.90;;;11.70;62.50;;;;;;5002348;28;20054;-71
2021/12/04 05:43:24;;;;;;;1.52;1.10;;;11.70;62.60;;;;;;5002176;28;20042;-71
2021/12/04 05:46:03;;;;;;;1.38;1.20;;;11.70;63.20;;;;;;5001008;28;20097;-72
2021/12/04 05:48:40;;;;;;;1.80;1.08;;;11.70;62.60;;;;;;5017254;28;20348;-71
2021/12/04 05:56:19;;;;;;;2.38;1.20;;;11.60;62.70;;;;;;5002335;28;20556;-71
2021/12/04 05:58:45;;;;;;;2.17;1.55;;;11.60;62.80;;;;;;5001936;28;20400;-71
2021/12/04 06:01:11;;;;;;;2.20;1.42;;;11.70;62.70;;;;;;5001812;28;20057;-71
2021/12/04 06:03:37;;;;;;;1.90;1.20;;;11.70;62.60;;;;;;5001933;28;20261;-71
2021/12/04 06:06:03;;;;;;;1.63;1.30;;;11.70;62.70;;;;;;5017162;28;20105;-71
2021/12/04 06:08:30;;;;;;;1.63;1.10;;;11.60;62.60;;;;;;5016852;28;20022;-71
2021/12/04 06:10:56;;;;;;;1.60;1.20;;;11.70;62.70;;;;;;5016852;28;20145;-71
2021/12/04 06:13:24;;;;;;;2.33;1.23;;;11.70;62.60;;;;;;5001750;28;20037;-71
2021/12/04 06:15:50;;;;;;;1.98;1.30;;;11.70;62.50;;;;;;5001733;28;20022;-71
2021/12/04 06:18:16;;;;;;;2.15;1.17;;;11.70;62.60;;;;;;5001631;28;20318;-71
2021/12/04 06:23:28;;;;;;;1.42;1.17;;;11.60;62.60;;;;;;5001569;28;20045;-72
2021/12/04 06:25:54;;;;;;;1.25;1.05;;;11.60;62.70;;;;;;5000175;28;20030;-71
2021/12/04 06:28:20;;;;;;;1.40;1.30;;;11.60;62.70;;;;;;5001401;28;20037;-72
2021/12/04 06:30:46;;;;;;;1.55;1.40;;;11.60;62.80;;;;;;5001371;28;20141;-71
2021/12/04 06:33:13;;;;;;;1.67;1.40;;;11.60;62.70;;;;;;5016355;28;20034;-71
2021/12/04 06:35:41;;;;;;;1.60;1.50;;;11.60;62.70;;;;;;5001371;28;20022;-71
2021/12/04 06:38:11;;;;;;;1.65;1.17;;;11.60;62.70;;;;;;5001336;28;20097;-71
2021/12/04 06:40:38;;;;;;;2.38;1.38;;;11.60;62.60;;;;;;5001169;28;20049;-71
2021/12/04 06:43:05;;;;;;;1.70;1.35;;;11.60;62.60;;;;;;5016256;28;20353;-71
2021/12/04 06:45:34;;;;;;;1.95;1.25;;;11.60;62.60;;;;;;5001132;28;20221;-72
2021/12/04 06:48:06;;;;;;;1.55;1.20;;;11.60;62.60;;;;;;5001224;28;20302;-72
2021/12/04 06:50:44;;;;;;;1.50;1.23;;;11.70;62.70;;;;;;4999833;28;20041;-71
2021/12/04 06:55:43;;;;;;;2.10;1.48;;;11.60;62.50;;;;;;5000670;28;20317;-71
2021/12/04 06:58:09;;;;;;;2.13;1.00;;;11.60;62.50;;;;;;5000970;28;20037;-71
2021/12/04 07:00:35;;;;;;;1.52;1.02;;;11.60;62.50;;;;;;4999506;28;20026;-72
2021/12/04 07:03:01;;;;;;;1.83;1.17;;;11.60;62.50;;;;;;5000781;28;20034;-71
2021/12/04 07:05:27;;;;;;;2.50;1.15;;;11.60;62.60;;;;;;5000728;28;20030;-72
2021/12/04 07:07:52;;;;;;;1.55;1.13;;;11.60;62.60;;;;;;5015835;28;20026;-72
2021/12/04 07:10:18;;;;;;;1.50;1.20;;;11.60;62.60;;;;;;5000733;28;20026;-72
2021/12/04 07:12:44;;;;;;;1.42;1.23;;;11.60;62.60;;;;;;5015683;28;20026;-72
2021/12/04 07:15:11;;;;;;;2.22;1.27;;;11.60;62.60;;;;;;4999361;28;20061;-72
2021/12/04 07:17:37;;;;;;;1.52;1.20;;;11.60;62.60;;;;;;5000580;28;20022;-71
2021/12/04 07:20:06;;;;;;;1.42;1.13;;;11.60;62.50;;;;;;5000477;28;20033;-71
2021/12/04 07:22:32;;;;;;;1.85;1.35;;;11.70;62.50;;;;;;4999227;28;20046;-71
2021/12/04 07:24:58;;;;;;;1.27;1.17;;;11.70;62.50;;;;;;5000413;28;20314;-71
2021/12/04 07:27:27;;;;;;;2.72;1.50;;;11.70;62.50;;;;;;5000348;28;20098;-72
2021/12/04 07:29:54;;;;;;;1.23;1.08;;;11.70;62.50;;;;;;5015442;28;20014;-72
2021/12/04 07:32:19;;;;;;;1.85;1.35;;;11.70;62.40;;;;;;5000367;28;20026;-70
2021/12/04 07:34:45;;;;;;;2.08;1.20;;;11.70;62.40;;;;;;5000343;28;20034;-70
2021/12/04 07:37:11;;;;;;;2.13;1.40;;;11.70;62.40;;;;;;5000266;28;20425;-71
2021/12/04 07:39:37;;;;;;;1.73;1.20;;;11.70;62.40;;;;;;5015482;28;20318;-70
2021/12/04 07:42:03;;;;;;;1.83;1.42;;;11.70;62.50;;;;;;5000057;28;20049;-72
2021/12/04 07:44:28;;;;;;;1.83;1.23;;;11.60;62.40;;;;;;5000220;28;20060;-72
2021/12/04 07:46:54;;;;;;;1.42;1.30;;;11.70;62.50;;;;;;5000108;28;20022;-71
2021/12/04 07:49:20;;;;;;;2.25;1.45;;;11.60;62.50;;;;;;5000169;28;20376;-72
2021/12/04 07:51:47;;;;;;;1.75;1.17;;;11.70;62.50;;;;;;4998791;28;20033;-70
2021/12/04 07:54:13;;;;;;;1.73;1.63;;;11.70;62.40;;;;;;4998589;28;20054;-72
2021/12/04 07:56:38;;;;;;;1.65;1.15;;;11.80;62.20;;;;;;4998874;28;20097;-71
2021/12/04 07:59:04;;;;;;;2.30;1.27;;;11.80;62.10;;;;;;5000045;28;20034;-72
2021/12/04 08:01:30;;;;;;;1.42;1.20;;;11.90;62.00;;;;;;5000152;28;20030;-72
2021/12/04 08:03:56;;;;;;;1.33;1.02;;;11.90;61.70;;;;;;5015145;28;20026;-71
2021/12/04 08:06:22;;;;;;;1.58;1.38;;;11.90;61.60;;;;;;4999922;28;20338;-72
2021/12/04 08:08:48;;;;;;;1.58;1.35;;;12.00;61.60;;;;;;5018421;28;20045;-71
2021/12/04 08:11:14;;;;;;;1.88;1.40;;;12.10;61.50;;;;;;5003997;28;20025;-71
2021/12/04 08:13:40;;;;;;;2.38;1.60;;;12.10;61.20;;;;;;5003973;28;20041;-72
2021/12/04 08:16:05;;;;;;;3.33;1.48;;;12.10;61.20;;;;;;5003971;28;20057;-72
2021/12/04 08:18:31;;;;;;;1.77;1.27;;;12.10;61.10;;;;;;5003775;28;20040;-72
2021/12/04 08:20:59;;;;;;;1.67;1.42;;;12.20;61.10;;;;;;5018981;28;20432;-72
2021/12/04 08:23:24;;;;;;;2.90;1.48;;;12.20;61.00;;;;;;5003840;28;20028;-72
2021/12/04 08:25:50;;;;;;;3.30;1.52;;;12.20;61.00;;;;;;5003821;28;20053;-72
2021/12/04 08:28:16;;;;;;;1.30;1.00;;;12.20;60.80;;;;;;5002621;28;20022;-70
2021/12/04 08:30:42;;;;;;;1.50;1.35;;;12.20;60.90;;;;;;5003629;28;20030;-72
2021/12/04 08:33:13;;;;;;;3.00;1.90;;;12.30;60.70;;;;;;5003639;28;20033;-71
2021/12/04 08:35:40;;;;;;;2.15;1.60;;;12.30;60.60;;;;;;5003699;28;20022;-72
2021/12/04 08:38:07;;;;;;;1.58;1.27;;;12.40;60.60;;;;;;5003516;28;20040;-71
2021/12/04 08:40:35;;;;;;;1.80;1.40;;;12.30;60.60;;;;;;5003449;28;20053;-72
2021/12/04 08:43:00;;;;;;;1.40;1.30;;;12.30;60.60;;;;;;5018546;28;20264;-71
2021/12/04 08:45:27;;;;;;;1.38;1.10;;;12.40;60.50;;;;;;5003493;28;20090;-71
2021/12/04 08:47:53;;;;;;;1.10;1.00;;;12.50;60.10;;;;;;5002095;28;20056;-72
2021/12/04 08:50:25;;;;;;;1.33;1.20;;;12.60;59.70;;;;;;5003343;28;20033;-72
2021/12/04 08:52:54;;;;;;;1.13;0.90;;;12.70;59.50;;;;;;5018239;28;20029;-70
2021/12/04 08:55:20;;;;;;;1.60;1.10;;;12.70;59.30;;;;;;5001884;28;20353;-72
2021/12/04 08:57:46;;;;;;;2.33;1.63;;;12.70;59.20;;;;;;5003153;28;20264;-72
2021/12/04 09:00:23;;;;;;;2.05;1.50;;;12.70;59.20;;;;;;5018078;28;20034;-71
2021/12/04 09:02:49;;;;;;;2.55;1.25;;;12.70;58.90;;;;;;5003156;28;20019;-72
2021/12/04 09:05:17;;;;;;;1.83;1.30;;;12.80;59.00;;;;;;5003051;28;20081;-71
2021/12/04 09:07:44;;;;;;;2.17;1.35;;;12.80;59.00;;;;;;5002995;28;20082;-71
2021/12/04 09:10:12;;;;;;;2.75;1.65;;;12.80;59.00;;;;;;5002859;28;20030;-72
2021/12/04 09:12:39;;;;;;;2.88;1.45;;;12.80;59.00;;;;;;5002959;28;20142;-72
2021/12/04 09:15:07;;;;;;;2.03;1.23;;;12.80;58.90;;;;;;5002841;28;20077;-71
2021/12/04 09:17:33;;;;;;;3.03;1.70;;;12.80;58.90;;;;;;5002744;28;20025;-71
2021/12/04 09:19:59;;;;;;;2.33;1.35;;;12.70;59.10;;;;;;5002349;28;20034;-73
2021/12/04 09:22:28;;;;;;;1.80;1.33;;;12.70;59.00;;;;;;5002754;28;20058;-72
2021/12/04 09:24:55;;;;;;;5.63;1.75;;;12.80;59.40;;;;;;5017751;28;20033;-72
2021/12/04 09:27:40;;;;;;;1.65;1.40;;;12.70;59.60;;;;;;5017732;28;20270;-72
2021/12/04 10:03:21;;;;;;;1.80;1.27;;;12.70;59.60;;;;;;5002254;28;20034;-71
2021/12/04 10:33:37;;;;;;;1.20;1.10;;;12.90;59.00;;;;;;5001434;28;20072;-70
2021/12/04 10:36:03;;;;;;;1.30;1.15;;;12.90;59.00;;;;;;5001282;28;20237;-72
2021/12/04 10:38:38;;;;;;;1.63;1.17;;;12.90;59.00;;;;;;5016289;28;20333;-71
2021/12/04 10:41:04;;;;;;;1.10;1.00;;;12.90;58.90;;;;;;5001189;28;20093;-71
2021/12/04 10:43:31;;;;;;;2.60;1.58;;;12.90;59.00;;;;;;5016225;28;20029;-73
2021/12/04 10:46:00;;;;;;;2.33;1.45;;;12.90;58.80;;;;;;5001198;28;20014;-71
2021/12/04 10:48:29;;;;;;;1.77;1.15;;;12.90;58.90;;;;;;5001141;28;20011;-71
2021/12/04 10:53:47;;;;;;;1.48;1.27;;;12.90;58.70;;;;;;5001008;28;19925;-71
2021/12/04 11:42:39;;;;;;;2.15;1.77;;;12.90;58.90;;;;;;5000286;28;20018;-72
2021/12/04 11:45:20;;;;;;;2.00;1.25;;;12.90;59.00;;;;;;5000183;28;20095;-71
2021/12/04 11:47:51;;;;;;;1.52;1.33;;;12.90;59.00;;;;;;5000120;28;20022;-71
2021/12/04 11:50:27;;;;;;;2.17;1.73;;;12.90;59.00;;;;;;5015171;28;20133;-72
2021/12/04 11:52:57;;;;;;;2.35;1.40;;;12.90;59.10;;;;;;4998677;28;20068;-72
2021/12/04 11:55:25;;;;;;;2.60;1.20;;;12.90;59.20;;;;;;4998808;28;20042;-71
2021/12/04 11:57:51;;;;;;;2.03;1.77;;;13.00;59.10;;;;;;5000024;28;20030;-72
2021/12/04 12:00:24;;;;;;;1.55;1.45;;;13.00;58.90;;;;;;4999853;28;20030;-71
2021/12/04 12:02:52;;;;;;;2.05;1.42;;;13.10;58.80;;;;;;5000053;28;20022;-72
2021/12/04 12:05:20;;;;;;;1.73;1.23;;;13.10;58.80;;;;;;5000070;28;20044;-72
2021/12/04 12:07:55;;;;;;;1.60;1.40;;;13.10;58.70;;;;;;5000051;28;20314;-72
2021/12/04 12:10:25;;;;;;;1.38;1.27;;;13.10;58.40;;;;;;4999925;28;20038;-70
2021/12/04 12:12:55;;;;;;;2.47;1.70;;;13.00;58.70;;;;;;4999820;28;20030;-70
2021/12/04 12:15:29;;;;;;;2.60;1.35;;;13.10;58.70;;;;;;4999817;28;20026;-71
2021/12/04 12:17:56;;;;;;;1.92;1.52;;;13.00;58.70;;;;;;4999859;28;20022;-72
2021/12/04 12:20:51;;;;;;;1.90;1.42;;;13.00;59.00;;;;;;4999677;28;20069;-72
2021/12/04 12:23:20;;;;;;;2.05;1.58;;;13.00;58.90;;;;;;4999830;28;20014;-71
2021/12/04 12:26:09;;;;;;;2.25;1.50;;;12.90;58.90;;;;;;4999769;28;20068;-71
2021/12/04 12:32:00;;;;;;;1.83;1.38;;;13.00;59.00;;;;;;4999749;28;20073;-72
2021/12/04 12:37:14;;;;;;;2.05;1.60;;;13.00;58.90;;;;;;4999967;28;20062;-72
2021/12/04 12:39:58;;;;;;;2.20;1.67;;;13.10;58.90;;;;;;4999613;28;20022;-72
2021/12/04 12:42:27;;;;;;;2.67;1.70;;;13.10;58.80;;;;;;4998317;28;20022;-71
2021/12/04 12:44:52;;;;;;;;;;;13.10;58.80;;;;;;5000044;28;20022;-71
2021/12/04 12:47:21;;;;;;;1.77;1.60;;;13.10;58.50;;;;;;5014721;28;19925;-71
2021/12/04 12:49:48;;;;;;;2.57;1.50;;;13.10;58.80;;;;;;4999591;28;20011;-72
2021/12/04 12:52:24;;;;;;;1.40;1.30;;;13.10;58.80;;;;;;4999546;28;20244;-73
2021/12/04 12:55:08;;;;;;;1.95;1.50;;;13.10;58.80;;;;;;5002493;28;20125;-71
2021/12/04 12:57:44;;;;;;;2.03;1.50;;;13.10;59.30;;;;;;5003232;28;20030;-72
2021/12/04 13:11:44;;;;;;;2.28;1.52;;;13.00;58.50;;;;;;5002935;28;20380;-71
2021/12/04 13:14:17;;;;;;;1.92;1.50;;;13.00;58.50;;;;;;5017975;28;20035;-71
2021/12/04 13:16:47;;;;;;;2.55;1.95;;;13.00;59.00;;;;;;5017995;28;20215;-71
2021/12/04 13:19:15;;;;;;;2.35;1.55;;;13.00;58.90;;;;;;5002666;28;20054;-72
2021/12/04 13:21:45;;;;;;;1.47;1.33;;;13.00;59.00;;;;;;5002586;28;20223;-71
2021/12/04 13:24:12;;;;;;;1.80;1.50;;;13.00;58.90;;;;;;5002652;28;20026;-72
2021/12/04 13:26:49;;;;;;;2.25;1.65;;;13.00;59.00;;;;;;5002648;28;20085;-72
2021/12/04 13:29:18;;;;;;;2.08;1.50;;;13.00;59.20;;;;;;5017660;28;20330;-73
2021/12/04 13:31:45;;;;;;;2.67;1.70;;;12.90;59.30;;;;;;5002573;28;20030;-72
2021/12/04 13:34:13;;;;;;;2.05;1.65;;;12.90;59.30;;;;;;5002474;28;20034;-72
2021/12/04 13:36:44;;;;;;;2.45;1.60;;;12.90;59.50;;;;;;5002509;28;20030;-73
2021/12/04 13:39:13;;;;;;;2.22;1.60;;;12.90;59.40;;;;;;5002399;28;20033;-71
2021/12/04 13:41:41;;;;;;;1.75;1.55;;;12.90;59.30;;;;;;5002372;28;20030;-73
2021/12/04 13:44:10;;;;;;;2.00;1.48;;;12.90;59.30;;;;;;5002228;28;20034;-72
2021/12/04 13:46:44;;;;;;;;;;;12.90;58.80;;;;;;5002833;28;20025;-72
2021/12/04 13:49:12;;;;;;;1.80;1.58;;;13.00;59.00;;;;;;5002215;28;20117;-73
2021/12/04 13:51:39;;;;;;;1.77;1.48;;;13.00;59.00;;;;;;5002241;28;20345;-72
2021/12/04 13:54:05;;;;;;;2.17;1.48;;;13.00;58.90;;;;;;5001923;28;20129;-71
2021/12/04 13:56:32;;;;;;;1.73;1.30;;;13.10;59.10;;;;;;5017158;28;20018;-72
2021/12/04 13:59:01;;;;;;;1.90;1.67;;;13.00;58.90;;;;;;5002035;28;20034;-72
2021/12/04 14:01:29;;;;;;;2.13;1.80;;;13.10;59.00;;;;;;5000727;28;20134;-72
2021/12/04 14:04:00;;;;;;;3.53;1.40;;;13.00;59.00;;;;;;5001960;28;20030;-73
2021/12/04 14:06:27;;;;;;;1.52;1.30;;;12.90;59.20;;;;;;5001918;28;20022;-72
2021/12/04 14:09:05;;;;;;;1.67;1.25;;;12.90;59.10;;;;;;5000565;28;20349;-72
2021/12/04 14:11:32;;;;;;;1.40;1.25;;;12.90;59.20;;;;;;5016923;28;20037;-72
2021/12/04 14:13:58;;;;;;;1.52;1.40;;;12.90;59.10;;;;;;5001806;28;20041;-72
2021/12/04 14:16:26;;;;;;;1.38;1.23;;;13.00;59.20;;;;;;5001797;28;20325;-72
2021/12/04 14:18:52;;;;;;;1.60;1.40;;;13.00;59.10;;;;;;5001686;28;20069;-71
2021/12/04 14:21:18;;;;;;;2.17;1.67;;;12.90;58.90;;;;;;5001625;28;20056;-72
2021/12/04 14:23:49;;;;;;;1.48;1.35;;;12.90;58.90;;;;;;5001650;28;20546;-72
2021/12/04 14:26:15;;;;;;;1.58;1.48;;;13.00;58.90;;;;;;5016617;28;20380;-72
2021/12/04 14:28:44;;;;;;;1.60;1.30;;;12.90;58.90;;;;;;5001526;28;20026;-70
2021/12/04 14:31:15;;;;;;;1.33;1.20;;;13.00;59.20;;;;;;5001440;28;20026;-70
2021/12/04 14:33:42;;;;;;;2.55;1.30;;;13.00;59.00;;;;;;5001311;28;20174;-70
2021/12/04 14:36:08;;;;;;;1.70;1.33;;;13.00;59.20;;;;;;5001260;28;20024;-71
2021/12/04 14:38:34;;;;;;;1.70;1.25;;;13.00;59.20;;;;;;5001306;28;20304;-73
2021/12/04 14:41:07;;;;;;;1.95;1.20;;;13.00;59.10;;;;;;5001089;28;20030;-72
2021/12/04 14:43:35;;;;;;;1.73;1.50;;;13.00;59.20;;;;;;5001179;28;20028;-71
2021/12/04 14:46:03;;;;;;;1.30;1.20;;;13.00;59.20;;;;;;5001164;28;20030;-72
2021/12/04 14:48:34;;;;;;;1.35;1.20;;;13.00;59.20;;;;;;5001197;28;20357;-71
2021/12/04 14:51:06;;;;;;;2.25;1.65;;;13.00;59.30;;;;;;5001005;28;20054;-71
2021/12/04 14:53:39;;;;;;;2.17;1.80;;;13.00;59.20;;;;;;5000877;28;20050;-71
2021/12/04 14:56:08;;;;;;;2.03;1.45;;;12.90;59.40;;;;;;5016147;28;20030;-71
2021/12/04 14:58:33;;;;;;;2.08;1.63;;;12.90;59.50;;;;;;5000933;28;20026;-72
2021/12/04 15:01:07;;;;;;;2.03;1.20;;;12.90;59.30;;;;;;5000779;28;20038;-72
2021/12/04 15:03:43;;;;;;;1.73;1.50;;;12.90;60.20;;;;;;4999604;28;20034;-72
2021/12/04 15:06:13;;;;;;;2.17;1.38;;;12.90;59.60;;;;;;5000856;28;20045;-71
2021/12/04 15:08:44;;;;;;;1.67;1.38;;;12.70;59.90;;;;;;5000818;28;20042;-72
2021/12/04 15:11:18;;;;;;;2.42;1.70;;;12.70;60.10;;;;;;5000744;28;20034;-72
2021/12/04 15:13:53;;;;;;;1.90;1.40;;;12.70;60.30;;;;;;5000738;28;20069;-71
2021/12/04 15:16:59;;;;;;;1.65;1.42;;;12.80;60.10;;;;;;5000247;28;20037;-72
2021/12/04 15:22:14;;;;;;;1.65;1.23;;;12.90;59.70;;;;;;4999298;28;20034;-72
2021/12/04 15:24:43;;;;;;;1.65;1.48;;;12.90;59.60;;;;;;5000592;28;20030;-71
2021/12/04 15:27:16;;;;;;;1.92;1.73;;;12.90;59.60;;;;;;5000465;28;20032;-72
2021/12/04 15:29:45;;;;;;;2.42;1.70;;;12.90;59.50;;;;;;5015482;28;20259;-72
2021/12/04 15:32:19;;;;;;;2.15;1.50;;;12.90;59.30;;;;;;5000346;28;20038;-71
2021/12/04 15:35:01;;;;;;;1.58;1.40;;;12.90;59.30;;;;;;5000336;28;20105;-71
2021/12/04 15:37:36;;;;;;;1.15;1.08;;;12.90;59.10;;;;;;5015511;28;20065;-71
2021/12/04 15:40:11;;;;;;;1.60;1.40;;;12.70;59.60;;;;;;5000168;28;20022;-72
2021/12/04 15:42:55;;;;;;;2.38;1.63;;;12.60;59.90;;;;;;5000365;28;20014;-71
2021/12/04 15:47:52;;;;;;;1.90;1.60;;;12.50;60.40;;;;;;5000182;28;20391;-72
2021/12/04 15:53:11;;;;;;;1.77;1.38;;;12.40;60.50;;;;;;5000007;28;20021;-71
2021/12/04 15:55:42;;;;;;;1.92;1.63;;;12.50;60.60;;;;;;5000148;28;20225;-71
2021/12/04 15:58:18;;;;;;;1.95;1.30;;;12.50;60.80;;;;;;5000150;28;20041;-72
2021/12/04 16:00:49;;;;;;;2.22;1.70;;;12.70;60.40;;;;;;4999983;28;20030;-72
2021/12/04 16:03:16;;;;;;;1.95;1.80;;;12.80;59.90;;;;;;4999943;28;20318;-71
2021/12/04 16:06:01;;;;;;;1.80;1.38;;;12.70;59.50;;;;;;5000042;28;20026;-72
2021/12/04 16:08:31;;;;;;;2.22;1.63;;;12.60;59.60;;;;;;4999942;28;20022;-72
2021/12/04 16:11:04;;;;;;;2.80;1.75;;;12.50;60.00;;;;;;4999905;28;20027;-72
2021/12/04 16:13:34;;;;;;;1.85;1.40;;;12.40;60.20;;;;;;4999928;28;20089;-72
2021/12/04 16:16:17;;;;;;;1.77;1.40;;;12.40;60.30;;;;;;4999980;28;20030;-72
2021/12/04 16:18:44;;;;;;;1.65;1.33;;;12.40;60.50;;;;;;4999875;28;20034;-72
2021/12/04 16:21:11;;;;;;;2.45;1.48;;;12.40;60.60;;;;;;5014898;28;20026;-71